createdAt,value
2022-08-02T00:01:26.167Z,18.88
2022-08-02T00:03:30.071Z,18.88
2022-08-02T00:05:35.977Z,18.88
2022-08-02T00:07:41.349Z,18.89
2022-08-02T00:09:45.246Z,18.87
2022-08-02T00:11:48.845Z,18.88
2022-08-02T00:13:52.542Z,18.89
2022-08-02T00:15:56.005Z,18.89
2022-08-02T00:17:59.867Z,18.90
2022-08-02T00:20:03.655Z,18.90
2022-08-02T00:22:09.216Z,18.91
2022-08-02T00:24:29.943Z,18.90
2022-08-02T00:26:34.484Z,18.91
2022-08-02T00:28:38.481Z,18.91
2022-08-02T00:30:41.969Z,18.90
2022-08-02T00:32:46.138Z,18.90
2022-08-02T00:34:49.727Z,18.91
2022-08-02T00:36:53.385Z,18.93
2022-08-02T00:38:58.641Z,18.92
2022-08-02T00:41:02.241Z,18.93
2022-08-02T00:43:08.287Z,18.93
2022-08-02T00:45:12.262Z,18.92
2022-08-02T00:47:19.529Z,18.93
2022-08-02T00:49:23.901Z,18.92
2022-08-02T00:51:28.224Z,18.91
2022-08-02T00:53:31.894Z,18.91
2022-08-02T00:55:37.578Z,18.91
2022-08-02T00:57:41.075Z,18.92
2022-08-02T00:59:44.762Z,18.93
2022-08-02T01:01:56.279Z,18.94
2022-08-02T01:04:01.294Z,18.94
2022-08-02T01:06:12.195Z,18.95
2022-08-02T01:08:15.945Z,18.96
2022-08-02T01:10:20.309Z,18.95
2022-08-02T01:12:25.794Z,18.96
2022-08-02T01:14:29.497Z,18.96
2022-08-02T01:16:37.345Z,18.96
2022-08-02T01:18:45.520Z,18.95
2022-08-02T01:21:07.286Z,18.95
2022-08-02T01:23:30.873Z,18.95
2022-08-02T01:25:58.521Z,18.94
2022-08-02T01:28:29.749Z,18.94
2022-08-02T01:30:36.257Z,18.93
2022-08-02T01:32:46.329Z,18.93
2022-08-02T01:34:56.740Z,18.93
2022-08-02T01:37:05.220Z,18.93
2022-08-02T01:39:27.565Z,18.94
2022-08-02T01:41:37.075Z,18.95
2022-08-02T01:43:45.899Z,18.94
2022-08-02T01:45:50.023Z,18.96
2022-08-02T01:47:56.068Z,18.96
2022-08-02T01:50:01.348Z,18.96
2022-08-02T01:52:26.392Z,18.95
2022-08-02T01:54:34.289Z,18.96
2022-08-02T01:56:38.018Z,18.97
2022-08-02T01:58:45.402Z,18.96
2022-08-02T02:00:51.099Z,18.95
2022-08-02T02:02:58.530Z,18.96
2022-08-02T02:05:03.439Z,18.94
2022-08-02T02:07:08.384Z,18.94
2022-08-02T02:09:13.708Z,18.93
2022-08-02T02:12:09.478Z,18.92
2022-08-02T02:13:43.465Z,18.93
2022-08-02T02:15:49.420Z,18.92
2022-08-02T02:18:12.547Z,18.91
2022-08-02T02:20:19.725Z,18.92
2022-08-02T02:22:23.149Z,18.91
2022-08-02T02:24:28.955Z,18.90
2022-08-02T02:26:33.269Z,18.91
2022-08-02T02:28:41.246Z,18.91
2022-08-02T02:30:50.565Z,18.91
2022-08-02T02:32:56.972Z,18.90
2022-08-02T02:35:02.822Z,18.89
2022-08-02T02:37:10.203Z,18.90
2022-08-02T02:39:15.717Z,18.89
2022-08-02T02:41:21.331Z,18.90
2022-08-02T02:43:26.428Z,18.88
2022-08-02T02:45:31.579Z,18.89
2022-08-02T02:47:40.779Z,18.89
2022-08-02T02:49:47.509Z,18.88
2022-08-02T02:51:51.839Z,18.89
2022-08-02T02:54:30.783Z,18.89
2022-08-02T02:56:21.744Z,18.89
2022-08-02T02:58:28.932Z,18.90
2022-08-02T03:00:50.071Z,18.90
2022-08-02T03:02:54.926Z,18.90
2022-08-02T03:05:02.823Z,18.89
2022-08-02T03:07:06.176Z,18.88
2022-08-02T03:09:11.555Z,18.88
2022-08-02T03:11:15.328Z,18.88
2022-08-02T03:13:19.961Z,18.88
2022-08-02T03:15:25.050Z,18.87
2022-08-02T03:17:39.028Z,18.86
2022-08-02T03:19:43.729Z,18.86
2022-08-02T03:21:48.155Z,18.88
2022-08-02T03:24:00.698Z,18.89
2022-08-02T03:26:04.082Z,18.89
2022-08-02T03:28:07.365Z,18.89
2022-08-02T03:30:12.902Z,18.90
2022-08-02T03:32:16.408Z,18.90
2022-08-02T03:34:20.031Z,18.91
2022-08-02T03:36:27.183Z,18.89
2022-08-02T03:38:33.779Z,18.88
2022-08-02T03:40:38.198Z,18.85
2022-08-02T03:42:42.378Z,18.83
2022-08-02T03:44:46.030Z,18.82
2022-08-02T03:46:50.088Z,18.79
2022-08-02T03:48:54.450Z,18.77
2022-08-02T03:50:58.258Z,18.75
2022-08-02T03:53:03.354Z,18.74
2022-08-02T03:55:07.378Z,18.73
2022-08-02T03:57:11.756Z,18.73
2022-08-02T03:59:16.586Z,18.72
2022-08-02T04:01:20.131Z,18.73
2022-08-02T04:03:23.862Z,18.72
2022-08-02T04:05:27.276Z,18.73
2022-08-02T04:08:33.850Z,18.73
2022-08-02T04:09:55.541Z,18.74
2022-08-02T04:11:58.910Z,18.73
2022-08-02T04:14:04.635Z,18.74
2022-08-02T04:16:13.759Z,18.74
2022-08-02T04:18:19.163Z,18.74
2022-08-02T04:20:26.410Z,18.74
2022-08-02T04:22:36.454Z,18.74
2022-08-02T04:24:44.910Z,18.74
2022-08-02T04:26:50.960Z,18.74
2022-08-02T04:28:55.715Z,18.74
2022-08-02T04:31:00.073Z,18.72
2022-08-02T04:33:03.479Z,18.72
2022-08-02T04:35:22.970Z,18.72
2022-08-02T04:37:27.667Z,18.70
2022-08-02T04:39:31.139Z,18.69
2022-08-02T04:41:44.307Z,18.69
2022-08-02T04:43:49.218Z,18.67
2022-08-02T04:45:54.376Z,18.65
2022-08-02T04:48:05.953Z,18.64
2022-08-02T04:50:10.593Z,18.63
2022-08-02T04:52:14.373Z,18.62
2022-08-02T04:54:17.781Z,18.63
2022-08-02T04:56:21.075Z,18.63
2022-08-02T04:58:39.796Z,18.62
2022-08-02T05:00:45.791Z,18.62
2022-08-02T05:02:49.399Z,18.61
2022-08-02T05:04:52.730Z,18.62
2022-08-02T05:06:56.031Z,18.60
2022-08-02T05:08:59.435Z,18.62
2022-08-02T05:11:02.706Z,18.63
2022-08-02T05:13:07.377Z,18.64
2022-08-02T05:15:13.820Z,18.66
2022-08-02T05:17:18.654Z,18.68
2022-08-02T05:19:22.041Z,18.67
2022-08-02T05:21:25.401Z,18.69
2022-08-02T05:23:28.647Z,18.69
2022-08-02T05:25:32.083Z,18.68
2022-08-02T05:27:35.390Z,18.69
2022-08-02T05:29:38.674Z,18.69
2022-08-02T05:31:42.067Z,18.69
2022-08-02T05:33:46.722Z,18.68
2022-08-02T05:35:50.019Z,18.67
2022-08-02T05:37:53.374Z,18.65
2022-08-02T05:39:56.632Z,18.64
2022-08-02T05:41:59.948Z,18.63
2022-08-02T05:44:03.407Z,18.64
2022-08-02T05:46:06.993Z,18.63
2022-08-02T05:48:10.331Z,18.62
2022-08-02T05:50:15.067Z,18.60
2022-08-02T05:52:20.313Z,18.60
2022-08-02T05:54:28.885Z,18.61
2022-08-02T05:56:36.434Z,18.60
2022-08-02T05:58:52.215Z,18.60
2022-08-02T06:00:57.702Z,18.58
2022-08-02T06:03:16.768Z,18.59
2022-08-02T06:05:22.718Z,18.58
2022-08-02T06:07:26.491Z,18.58
2022-08-02T06:09:30.476Z,18.59
2022-08-02T06:11:38.525Z,18.58
2022-08-02T06:13:42.756Z,18.58
2022-08-02T06:15:53.213Z,18.58
2022-08-02T06:17:58.537Z,18.58
2022-08-02T06:20:02.368Z,18.57
2022-08-02T06:22:35.977Z,18.57
2022-08-02T06:24:39.556Z,18.55
2022-08-02T06:26:44.396Z,18.56
2022-08-02T06:28:49.532Z,18.59
2022-08-02T06:30:52.920Z,18.60
2022-08-02T06:32:57.010Z,18.63
2022-08-02T06:35:00.334Z,18.64
2022-08-02T06:37:15.250Z,18.65
2022-08-02T06:39:23.595Z,18.66
2022-08-02T06:41:27.450Z,18.67
2022-08-02T06:43:39.755Z,18.66
2022-08-02T06:45:43.143Z,18.67
2022-08-02T06:47:46.549Z,18.69
2022-08-02T06:49:52.243Z,18.72
2022-08-02T06:51:57.900Z,18.75
2022-08-02T06:54:02.759Z,18.81
2022-08-02T06:56:07.232Z,18.85
2022-08-02T06:58:13.492Z,18.92
2022-08-02T07:00:17.054Z,18.99
2022-08-02T07:02:21.504Z,19.07
2022-08-02T07:04:25.453Z,19.14
2022-08-02T07:06:29.213Z,19.22
2022-08-02T07:08:33.117Z,19.26
2022-08-02T07:10:37.861Z,19.26
2022-08-02T07:12:41.404Z,19.30
2022-08-02T07:14:44.664Z,19.30
2022-08-02T07:16:48.071Z,19.30
2022-08-02T07:18:51.492Z,19.32
2022-08-02T07:20:55.618Z,19.35
2022-08-02T07:22:59.052Z,19.38
2022-08-02T07:25:02.671Z,19.41
2022-08-02T07:27:11.763Z,19.42
2022-08-02T07:29:15.763Z,19.45
2022-08-02T07:31:19.299Z,19.47
2022-08-02T07:33:38.446Z,19.48
2022-08-02T07:35:43.310Z,19.49
2022-08-02T07:37:55.660Z,19.50
2022-08-02T07:40:01.653Z,19.53
2022-08-02T07:42:08.249Z,19.54
2022-08-02T07:44:11.554Z,19.56
2022-08-02T07:46:14.969Z,19.56
2022-08-02T07:48:18.369Z,19.57
2022-08-02T07:50:22.864Z,19.57
2022-08-02T07:52:26.386Z,19.57
2022-08-02T07:54:29.977Z,19.57
2022-08-02T07:56:33.321Z,19.56
2022-08-02T07:58:38.737Z,19.57
2022-08-02T08:00:44.091Z,19.58
2022-08-02T08:02:48.285Z,19.59
2022-08-02T08:04:51.600Z,19.62
2022-08-02T08:06:55.425Z,19.64
2022-08-02T08:08:59.030Z,19.67
2022-08-02T08:11:02.249Z,19.66
2022-08-02T08:13:05.851Z,19.66
2022-08-02T08:15:11.729Z,19.67
2022-08-02T08:17:15.129Z,19.68
2022-08-02T08:19:18.397Z,19.67
2022-08-02T08:21:21.745Z,19.68
2022-08-02T08:23:24.996Z,19.70
2022-08-02T08:25:28.761Z,19.68
2022-08-02T08:27:33.052Z,19.66
2022-08-02T08:29:36.450Z,19.67
2022-08-02T08:31:41.218Z,19.69
2022-08-02T08:33:44.619Z,19.70
2022-08-02T08:35:47.958Z,19.72
2022-08-02T08:37:51.300Z,19.73
2022-08-02T08:39:57.850Z,19.74
2022-08-02T08:42:02.723Z,19.73
2022-08-02T08:44:06.390Z,19.70
2022-08-02T08:46:12.129Z,19.67
2022-08-02T08:48:21.800Z,19.62
2022-08-02T08:50:39.779Z,19.62
2022-08-02T08:52:44.587Z,19.65
2022-08-02T08:54:49.751Z,19.71
2022-08-02T08:56:55.912Z,19.81
2022-08-02T08:58:59.423Z,19.91
2022-08-02T09:01:03.039Z,19.99
2022-08-02T09:03:08.633Z,20.09
2022-08-02T09:05:16.033Z,20.19
2022-08-02T09:07:19.373Z,20.26
2022-08-02T09:09:22.893Z,20.33
2022-08-02T09:11:27.007Z,20.39
2022-08-02T09:13:44.980Z,20.48
2022-08-02T09:15:56.518Z,20.54
2022-08-02T09:17:59.754Z,20.57
2022-08-02T09:20:10.613Z,20.62
2022-08-02T09:22:16.356Z,20.78
2022-08-02T09:24:21.214Z,20.93
2022-08-02T09:26:25.929Z,21.06
2022-08-02T09:28:30.176Z,21.19
2022-08-02T09:30:33.876Z,21.33
2022-08-02T09:32:46.672Z,21.54
2022-08-02T09:34:52.075Z,21.77
2022-08-02T09:36:55.433Z,21.95
2022-08-02T09:39:02.697Z,22.02
2022-08-02T09:41:07.376Z,22.03
2022-08-02T09:43:11.080Z,22.02
2022-08-02T09:45:14.408Z,21.98
2022-08-02T09:47:18.258Z,21.94
2022-08-02T09:49:21.997Z,21.88
2022-08-02T09:51:28.414Z,21.88
2022-08-02T09:53:32.484Z,21.91
2022-08-02T09:55:37.350Z,21.93
2022-08-02T09:57:40.772Z,21.96
2022-08-02T09:59:54.689Z,22.02
2022-08-02T10:02:17.127Z,22.11
2022-08-02T10:04:22.533Z,22.18
2022-08-02T10:06:26.374Z,22.17
2022-08-02T10:08:33.289Z,22.09
2022-08-02T10:10:38.485Z,21.98
2022-08-02T10:12:41.928Z,21.92
2022-08-02T10:14:46.887Z,21.92
2022-08-02T10:16:50.280Z,21.89
2022-08-02T10:18:55.590Z,21.82
2022-08-02T10:21:02.996Z,21.74
2022-08-02T10:23:07.675Z,21.63
2022-08-02T10:25:11.569Z,21.50
2022-08-02T10:27:20.498Z,21.37
2022-08-02T10:29:44.792Z,21.26
2022-08-02T10:31:58.603Z,21.18
2022-08-02T10:34:04.543Z,21.10
2022-08-02T10:36:09.850Z,21.05
2022-08-02T10:38:14.136Z,20.98
2022-08-02T10:40:24.391Z,20.91
2022-08-02T10:42:48.753Z,20.88
2022-08-02T10:45:10.697Z,20.88
2022-08-02T10:47:26.164Z,20.94
2022-08-02T10:49:39.640Z,21.05
2022-08-02T10:52:17.355Z,21.15
2022-08-02T10:54:22.137Z,21.24
2022-08-02T10:56:47.428Z,21.34
2022-08-02T10:59:24.978Z,21.43
2022-08-02T11:01:38.600Z,21.51
2022-08-02T11:03:46.719Z,21.51
2022-08-02T11:06:03.187Z,21.50
2022-08-02T11:08:20.805Z,21.48
2022-08-02T11:10:41.466Z,21.48
2022-08-02T11:13:01.793Z,21.46
2022-08-02T11:15:08.179Z,21.45
2022-08-02T11:17:16.562Z,21.43
2022-08-02T11:19:20.387Z,21.44
2022-08-02T11:21:25.034Z,21.40
2022-08-02T11:23:44.951Z,21.37
2022-08-02T11:26:11.188Z,21.37
2022-08-02T11:28:14.537Z,21.38
2022-08-02T11:30:20.131Z,21.43
2022-08-02T11:32:31.509Z,21.50
2022-08-02T11:34:38.026Z,21.53
2022-08-02T11:39:10.575Z,21.58
2022-08-02T11:41:46.156Z,21.59
2022-08-02T11:43:45.118Z,21.60
2022-08-02T11:45:52.655Z,21.59
2022-08-02T11:47:56.475Z,21.59
2022-08-02T11:50:06.916Z,21.62
2022-08-02T11:52:11.794Z,21.72
2022-08-02T11:54:24.962Z,21.76
2022-08-02T11:56:31.225Z,21.85
2022-08-02T11:58:34.927Z,21.99
2022-08-02T12:00:38.806Z,22.14
2022-08-02T12:02:48.693Z,22.34
2022-08-02T12:04:58.472Z,22.46
2022-08-02T12:07:03.900Z,22.54
2022-08-02T12:09:18.198Z,22.62
2022-08-02T12:11:22.848Z,22.71
2022-08-02T12:13:26.450Z,22.81
2022-08-02T12:15:38.419Z,22.87
2022-08-02T12:18:05.124Z,22.94
2022-08-02T12:20:09.328Z,23.10
2022-08-02T12:22:27.418Z,23.24
2022-08-02T12:24:31.436Z,23.29
2022-08-02T12:26:44.247Z,23.23
2022-08-02T12:28:47.907Z,23.25
2022-08-02T12:30:53.848Z,23.28
2022-08-02T12:33:12.930Z,23.36
2022-08-02T12:35:26.103Z,23.44
2022-08-02T12:37:30.702Z,23.48
2022-08-02T12:39:40.795Z,23.56
2022-08-02T12:41:55.138Z,23.59
2022-08-02T12:43:59.153Z,23.63
2022-08-02T12:46:02.937Z,23.65
2022-08-02T12:48:08.198Z,23.63
2022-08-02T12:50:17.000Z,23.57
2022-08-02T12:52:21.519Z,23.57
2022-08-02T12:54:31.077Z,23.63
2022-08-02T12:56:39.579Z,23.73
2022-08-02T12:58:50.446Z,23.84
2022-08-02T13:00:55.802Z,23.93
2022-08-02T13:03:00.105Z,23.97
2022-08-02T13:05:05.833Z,23.96
2022-08-02T13:07:09.462Z,23.93
2022-08-02T13:09:16.239Z,23.88
2022-08-02T13:11:19.905Z,23.84
2022-08-02T13:13:23.630Z,23.77
2022-08-02T13:15:49.686Z,23.77
2022-08-02T13:17:51.200Z,23.74
2022-08-02T13:19:54.925Z,23.64
2022-08-02T13:22:11.187Z,23.61
2022-08-02T13:24:33.262Z,23.66
2022-08-02T13:26:40.213Z,23.77
2022-08-02T13:28:44.223Z,23.80
2022-08-02T13:30:47.834Z,23.77
2022-08-02T13:32:51.485Z,23.73
2022-08-02T13:34:55.289Z,23.74
2022-08-02T13:37:00.342Z,23.74
2022-08-02T13:39:05.662Z,23.66
2022-08-02T13:41:13.766Z,23.60
2022-08-02T13:43:17.569Z,23.54
2022-08-02T13:45:21.185Z,23.43
2022-08-02T13:47:35.925Z,23.32
2022-08-02T13:49:51.248Z,23.23
2022-08-02T13:51:55.775Z,23.20
2022-08-02T13:54:00.906Z,23.23
2022-08-02T13:56:04.967Z,23.26
2022-08-02T13:58:08.454Z,23.29
2022-08-02T14:00:13.694Z,23.30
2022-08-02T14:02:18.590Z,23.26
2022-08-02T14:04:22.428Z,23.27
2022-08-02T14:06:26.129Z,23.30
2022-08-02T14:08:29.792Z,23.32
2022-08-02T14:10:34.827Z,23.34
2022-08-02T14:12:38.484Z,23.33
2022-08-02T14:14:42.411Z,23.34
2022-08-02T14:16:46.581Z,23.36
2022-08-02T14:18:50.370Z,23.37
2022-08-02T14:20:55.104Z,23.36
2022-08-02T14:22:58.936Z,23.36
2022-08-02T14:25:09.035Z,23.32
2022-08-02T14:27:15.963Z,23.26
2022-08-02T14:29:19.880Z,23.23
2022-08-02T14:31:23.586Z,23.27
2022-08-02T14:33:30.298Z,23.32
2022-08-02T14:35:34.585Z,23.36
2022-08-02T14:37:38.318Z,23.41
2022-08-02T14:39:43.705Z,23.43
2022-08-02T14:42:03.571Z,23.51
2022-08-02T14:44:09.649Z,23.52
2022-08-02T14:46:13.292Z,23.52
2022-08-02T14:48:16.987Z,23.51
2022-08-02T14:50:20.740Z,23.46
2022-08-02T14:52:24.503Z,23.47
2022-08-02T14:54:31.191Z,23.49
2022-08-02T14:56:35.407Z,23.54
2022-08-02T14:58:39.033Z,23.54
2022-08-02T15:00:45.416Z,23.56
2022-08-02T15:02:49.368Z,23.56
2022-08-02T15:04:53.044Z,23.56
2022-08-02T15:06:56.869Z,23.54
2022-08-02T15:09:01.239Z,23.47
2022-08-02T15:11:06.441Z,23.41
2022-08-02T15:13:10.148Z,23.38
2022-08-02T15:15:13.682Z,23.38
2022-08-02T15:17:18.823Z,23.38
2022-08-02T15:19:22.343Z,23.43
2022-08-02T15:21:52.667Z,23.47
2022-08-02T15:23:51.860Z,23.47
2022-08-02T15:25:55.416Z,23.47
2022-08-02T15:27:59.091Z,23.48
2022-08-02T15:30:02.802Z,23.55
2022-08-02T15:32:07.834Z,23.63
2022-08-02T15:34:13.119Z,23.69
2022-08-02T15:36:16.915Z,23.75
2022-08-02T15:38:21.076Z,23.77
2022-08-02T15:40:24.885Z,23.84
2022-08-02T15:42:30.705Z,23.90
2022-08-02T15:44:34.587Z,23.96
2022-08-02T15:46:39.610Z,23.95
2022-08-02T15:48:43.354Z,23.95
2022-08-02T15:50:48.578Z,23.94
2022-08-02T15:52:52.224Z,23.97
2022-08-02T15:54:56.302Z,23.98
2022-08-02T15:56:59.834Z,24.03
2022-08-02T15:59:03.887Z,24.05
2022-08-02T16:01:07.868Z,24.09
2022-08-02T16:03:11.652Z,24.10
2022-08-02T16:05:15.446Z,24.07
2022-08-02T16:07:20.547Z,24.01
2022-08-02T16:09:24.263Z,23.94
2022-08-02T16:11:27.865Z,23.87
2022-08-02T16:13:53.640Z,23.75
2022-08-02T16:15:59.016Z,23.69
2022-08-02T16:18:02.821Z,23.70
2022-08-02T16:20:07.818Z,23.70
2022-08-02T16:22:11.965Z,23.75
2022-08-02T16:24:17.447Z,23.82
2022-08-02T16:26:21.532Z,23.88
2022-08-02T16:28:25.378Z,23.92
2022-08-02T16:30:29.485Z,23.90
2022-08-02T16:32:33.013Z,23.91
2022-08-02T16:34:57.147Z,23.90
2022-08-02T16:37:00.706Z,23.91
2022-08-02T16:39:05.168Z,23.89
2022-08-02T16:41:10.671Z,23.86
2022-08-02T16:43:14.171Z,23.83
2022-08-02T16:45:20.204Z,23.80
2022-08-02T16:47:36.996Z,23.79
2022-08-02T16:50:06.636Z,23.81
2022-08-02T16:52:10.887Z,23.79
2022-08-02T16:54:15.138Z,23.79
2022-08-02T16:56:24.160Z,23.83
2022-08-02T16:58:27.812Z,23.86
2022-08-02T17:00:31.533Z,23.90
2022-08-02T17:02:35.689Z,23.92
2022-08-02T17:04:43.477Z,23.92
2022-08-02T17:06:52.090Z,23.93
2022-08-02T17:08:57.086Z,23.89
2022-08-02T17:11:03.406Z,23.85
2022-08-02T17:13:26.466Z,23.82
2022-08-02T17:16:08.002Z,23.80
2022-08-02T17:17:54.514Z,23.78
2022-08-02T17:19:58.303Z,23.77
2022-08-02T17:22:04.097Z,23.74
2022-08-02T17:24:08.854Z,23.71
2022-08-02T17:26:13.384Z,23.66
2022-08-02T17:28:17.258Z,23.62
2022-08-02T17:30:26.568Z,23.57
2022-08-02T17:32:31.327Z,23.51
2022-08-02T17:34:35.622Z,23.46
2022-08-02T17:36:39.636Z,23.39
2022-08-02T17:38:51.783Z,23.35
2022-08-02T17:40:56.156Z,23.31
2022-08-02T17:43:00.000Z,23.29
2022-08-02T17:45:16.165Z,23.28
2022-08-02T17:47:22.544Z,23.27
2022-08-02T17:49:26.232Z,23.28
2022-08-02T17:52:14.797Z,23.29
2022-08-02T17:53:54.044Z,23.28
2022-08-02T17:56:00.092Z,23.24
2022-08-02T17:58:03.806Z,23.17
2022-08-02T18:00:10.535Z,23.11
2022-08-02T18:02:16.833Z,23.11
2022-08-02T18:04:26.898Z,23.14
2022-08-02T18:06:31.869Z,23.22
2022-08-02T18:08:36.832Z,23.29
2022-08-02T18:10:41.317Z,23.30
2022-08-02T18:12:46.271Z,23.32
2022-08-02T18:14:51.431Z,23.31
2022-08-02T18:16:55.189Z,23.30
2022-08-02T18:18:59.180Z,23.28
2022-08-02T18:21:15.635Z,23.26
2022-08-02T18:23:20.126Z,23.23
2022-08-02T18:25:37.404Z,23.15
2022-08-02T18:27:47.705Z,23.12
2022-08-02T18:30:03.993Z,23.11
2022-08-02T18:32:11.594Z,23.15
2022-08-02T18:34:15.875Z,23.21
2022-08-02T18:36:24.703Z,23.22
2022-08-02T18:38:31.281Z,23.24
2022-08-02T18:40:34.857Z,23.26
2022-08-02T18:42:38.474Z,23.26
2022-08-02T18:44:43.316Z,23.23
2022-08-02T18:46:49.402Z,23.21
2022-08-02T18:48:53.665Z,23.20
2022-08-02T18:50:59.845Z,23.18
2022-08-02T18:53:05.007Z,23.12
2022-08-02T18:55:17.632Z,23.11
2022-08-02T18:58:03.203Z,23.14
2022-08-02T19:00:00.967Z,23.10
2022-08-02T19:02:04.874Z,23.06
2022-08-02T19:04:08.776Z,23.01
2022-08-02T19:06:12.404Z,22.94
2022-08-02T19:08:18.318Z,22.86
2022-08-02T19:10:22.095Z,22.76
2022-08-02T19:12:28.238Z,22.63
2022-08-02T19:14:32.567Z,22.50
2022-08-02T19:16:37.805Z,22.42
2022-08-02T19:18:41.925Z,22.36
2022-08-02T19:20:48.295Z,22.37
2022-08-02T19:22:53.722Z,22.44
2022-08-02T19:25:00.082Z,22.56
2022-08-02T19:27:13.823Z,22.69
2022-08-02T19:29:18.859Z,22.75
2022-08-02T19:32:40.288Z,22.72
2022-08-02T19:34:08.144Z,22.62
2022-08-02T19:36:12.059Z,22.48
2022-08-02T19:38:15.723Z,22.35
2022-08-02T19:40:24.346Z,22.21
2022-08-02T19:42:28.562Z,22.07
2022-08-02T19:44:32.595Z,21.95
2022-08-02T19:46:36.192Z,21.85
2022-08-02T19:48:41.205Z,21.75
2022-08-02T19:50:49.226Z,21.67
2022-08-02T19:52:53.466Z,21.57
2022-08-02T19:54:59.650Z,21.50
2022-08-02T19:57:22.598Z,21.42
2022-08-02T19:59:26.414Z,21.37
2022-08-02T20:01:38.709Z,21.33
2022-08-02T20:03:51.418Z,21.28
2022-08-02T20:05:56.561Z,21.24
2022-08-02T20:08:00.772Z,21.18
2022-08-02T20:10:06.264Z,21.13
2022-08-02T20:12:15.642Z,21.08
2022-08-02T20:14:26.749Z,20.98
2022-08-02T20:16:33.040Z,20.89
2022-08-02T20:18:37.530Z,20.84
2022-08-02T20:20:44.627Z,20.80
2022-08-02T20:23:33.342Z,20.74
2022-08-02T20:25:29.610Z,20.70
2022-08-02T20:27:33.137Z,20.66
2022-08-02T20:29:43.444Z,20.61
2022-08-02T20:31:49.119Z,20.56
2022-08-02T20:33:55.490Z,20.51
2022-08-02T20:36:01.689Z,20.46
2022-08-02T20:38:06.146Z,20.42
2022-08-02T20:40:16.611Z,20.38
2022-08-02T20:42:23.025Z,20.35
2022-08-02T20:44:30.105Z,20.34
2022-08-02T20:46:36.404Z,20.35
2022-08-02T20:48:41.174Z,20.34
2022-08-02T20:50:52.294Z,20.34
2022-08-02T20:52:57.272Z,20.35
2022-08-02T20:55:03.001Z,20.35
2022-08-02T20:57:07.149Z,20.35
2022-08-02T20:59:16.118Z,20.35
2022-08-02T21:01:21.099Z,20.33
2022-08-02T21:03:39.102Z,20.29
2022-08-02T21:05:54.775Z,20.24
2022-08-02T21:08:02.714Z,20.16
2022-08-02T21:10:07.824Z,20.10
2022-08-02T21:12:12.860Z,20.06
2022-08-02T21:14:16.760Z,20.04
2022-08-02T21:16:22.369Z,20.02
2022-08-02T21:18:40.317Z,19.97
2022-08-02T21:20:44.595Z,19.95
2022-08-02T21:22:48.346Z,19.90
2022-08-02T21:24:52.820Z,19.89
2022-08-02T21:26:56.914Z,19.86
2022-08-02T21:29:01.056Z,19.81
2022-08-02T21:31:07.043Z,19.80
2022-08-02T21:33:23.440Z,19.77
2022-08-02T21:35:30.152Z,19.75
2022-08-02T21:37:45.052Z,19.72
2022-08-02T21:39:49.953Z,19.73
2022-08-02T21:41:54.130Z,19.70
2022-08-02T21:44:03.304Z,19.70
2022-08-02T21:46:09.769Z,19.69
2022-08-02T21:48:18.129Z,19.69
2022-08-02T21:50:22.162Z,19.68
2022-08-02T21:52:28.128Z,19.65
2022-08-02T21:54:31.646Z,19.65
2022-08-02T21:56:37.749Z,19.61
2022-08-02T21:58:43.794Z,19.57
2022-08-02T22:00:47.334Z,19.54
2022-08-02T22:02:51.028Z,19.50
2022-08-02T22:04:55.721Z,19.45
2022-08-02T22:07:00.615Z,19.43
2022-08-02T22:09:05.765Z,19.41
2022-08-02T22:11:21.533Z,19.39
2022-08-02T22:13:25.161Z,19.39
2022-08-02T22:15:42.083Z,19.35
2022-08-02T22:20:15.522Z,19.30
2022-08-02T22:22:28.232Z,19.28
2022-08-02T22:24:34.070Z,19.23
2022-08-02T22:26:38.032Z,19.21
2022-08-02T22:28:51.012Z,19.19
2022-08-02T22:30:57.440Z,19.18
2022-08-02T22:33:19.467Z,19.15
2022-08-02T22:35:23.175Z,19.11
2022-08-02T22:38:16.208Z,19.09
2022-08-02T22:40:05.966Z,19.10
2022-08-02T22:42:13.141Z,19.06
2022-08-02T22:44:20.023Z,19.03
2022-08-02T22:46:26.467Z,19.00
2022-08-02T22:48:30.395Z,19.00
2022-08-02T22:50:34.428Z,18.98
2022-08-02T22:52:38.121Z,18.96
2022-08-02T22:54:43.374Z,18.96
2022-08-02T22:56:48.671Z,18.93
2022-08-02T22:59:12.384Z,19.35
2022-08-02T23:01:16.303Z,18.91
2022-08-02T23:03:19.786Z,18.89
2022-08-02T23:05:23.387Z,18.84
2022-08-02T23:07:27.290Z,18.79
2022-08-02T23:09:30.895Z,18.76
2022-08-02T23:11:34.601Z,18.74
2022-08-02T23:13:39.771Z,18.71
2022-08-02T23:16:00.889Z,18.70
2022-08-02T23:18:21.751Z,18.67
2022-08-02T23:20:26.680Z,18.68
2022-08-02T23:22:32.374Z,18.67
2022-08-02T23:24:36.273Z,18.67
2022-08-02T23:26:39.937Z,18.67
2022-08-02T23:28:45.083Z,18.69
2022-08-02T23:30:48.603Z,18.70
2022-08-02T23:32:52.577Z,18.69
2022-08-02T23:34:57.701Z,18.69
2022-08-02T23:37:04.077Z,18.69
2022-08-02T23:39:08.081Z,18.65
2022-08-02T23:41:11.642Z,18.60
2022-08-02T23:43:15.525Z,18.59
2022-08-02T23:45:20.792Z,18.55
2022-08-02T23:47:24.526Z,18.49
2022-08-02T23:49:28.596Z,18.46
2022-08-02T23:51:32.201Z,18.44
2022-08-02T23:53:35.917Z,18.41
2022-08-02T23:55:42.137Z,18.37
2022-08-02T23:57:45.740Z,18.31
2022-08-02T23:59:49.362Z,18.24
